Idaho Falls, ID

8:54 PM MDT on July 06, 2015 (GMT -0600)
Ammon Ross Ave | | Change Station
CLOSE
Current Station
Personal Weather Station
Location: Ammon, ID
Elevation: 4721 ft
Nearby Weather Stations

Elev 4721 ft 43.47 °N, 111.96 °W | Updated 12 minutes ago

Clear
Clear
72.3 °F
Feels Like 76 °F
N
0.0
Wind Variable Wind from SSW

Today
High -- | Low -- °F
--% Chance of Precip.
Yesterday
High -- | Low -- °F
Precip. -- in
5:52 AM 9:10 PM
Waning Gibbous, 69% visible
Pressure 29.96 in
Visibility 10.0 miles
Clouds Clear
Heat Index 76 °F
Dew Point 58 °F
Humidity 60%
Rainfall 0.22 in
Snow Depth Not available.
UV 1 out of 12
Pollen 5.30 out of 12
Air Quality Not available.
Flu Activity Not available.
METAR KIDA 070153Z 17005KT 10SM CLR 24/11 A3008 RMK AO2 SLP146 T02440111

More Conditions Fewer Conditions

Pressure 29.96 in
Visibility 10.0 miles
Clouds Clear
Heat Index 76 °F
Dew Point 58 °F
Humidity 60%
Rainfall 0.22 in
Snow Depth Not available.
UV 1 out of 12
Pollen 5.30 out of 12
Air Quality Not available.
Flu Activity Not available.
METAR KIDA 070153Z 17005KT 10SM CLR 24/11 A3008 RMK AO2 SLP146 T02440111

More Conditions Fewer Conditions

10-Day Weather Forecast

×

Almanac

Astronomy

Jul. 06, 2015 Rise Set
Actual Time
Civil Twilight
Nautical Twilight
Astronomical Twilight
Moon
Length of Visible Light
Length of Day
Tomorrow will be .
, % of the Moon is Illuminated

Today's Extremes

State Highs State Lows

Community

WunderPhotos

Upload Photos

1,835,701 photos uploaded!

WunderBlogs® & News

Nearby

Air Quality

  Air Quality AQ Index Pollutant
Not available.

Snow Depth

Station Depth Elevation

Earthquake Activity

City Distance Mag. Time & Date
Minimum magnitude displayed is 2.5.

Coastal Water Temperatures

Place Temperature

Stations

Nearby Weather Stations

Station Location Temp. Windchill Dew Point Humidity Wind Precip. Elev Updated Type